Denali National Park, Alaska
Current Conditions -  °F | °C
As of 11:56 AM on Friday 19 Dec 2014 (Local Time) from PAIN Reporting Station
Clear Clear  
Wind Chill: -2°   Ceiling: Unl
Heat Index: -2°   Visibility: 10mi
Dew Point: -6°   Wind: 0mph
Humidity: 85%   Direction: NA
Pressure: 29.18"   Gusts: NA
Location:  63.7326°N, 148.918°W
Report Text: PAIN 192056Z AUTO 00000KT 10SM CLR M19/M21 A2918 RMK AO1 54000
Loading
Personal Weather Stations






























Interactive Weather Map New forecast layout! Learn more

10-Day Weather Forecast

Advertisements
Track Severe Weather on mobile